Terminal Aerodrome Forecast
Issued by NWS

Home | Current Version | Previous Version | Text Only | Print | Product List | Glossary On
Versions: 1 2 3 4 5 6 7 8 9 10 11 12 13 14 15 16 17 18 19 20 21 22 23 24 25 26 27 28 29 30
000
FTUS46 KLOX 201426 AAB
TAFSBP
TAF AMD
KSBP 201426Z 2014/2112 14008KT 4SM -RA BR BKN013 OVC020
     FM201700 16012KT 5SM -RA BR OVC015
     FM201900 16015G20KT 4SM RA BR OVC008
     FM202200 14005KT 5SM -RA BR OVC007
     FM210400 VRB05KT 6SM -RA BR OVC025
     FM210900 VRB05KT 3SM -RA BR OVC010=

USA.gov is the U.S. government's official web portal to all federal, state and local government web resources and services.